createdAt,value
2017-08-11T00:00:54.013Z,97.90
2017-08-11T00:03:20.457Z,95.30
2017-08-11T00:05:47.343Z,95.70
2017-08-11T00:08:14.290Z,94.30
2017-08-11T00:10:42.094Z,94.20
2017-08-11T00:13:08.297Z,92.50
2017-08-11T00:15:34.611Z,93.40
2017-08-11T00:18:02.700Z,99.90
2017-08-11T00:20:28.889Z,99.90
2017-08-11T00:22:56.886Z,99.90
2017-08-11T00:25:23.476Z,99.90
2017-08-11T00:27:49.748Z,99.90
2017-08-11T00:30:17.089Z,98.80
2017-08-11T00:32:43.854Z,99.90
2017-08-11T00:35:10.417Z,99.90
2017-08-11T00:37:36.600Z,99.90
2017-08-11T00:40:03.725Z,99.90
2017-08-11T00:42:29.952Z,99.90
2017-08-11T00:44:56.261Z,99.90
2017-08-11T00:47:22.853Z,99.90
2017-08-11T00:49:50.722Z,99.90
2017-08-11T00:52:17.105Z,99.90
2017-08-11T00:54:43.708Z,99.90
2017-08-11T00:57:10.713Z,99.90
2017-08-11T00:59:36.968Z,99.90
2017-08-11T01:02:03.288Z,99.90
2017-08-11T01:04:29.502Z,99.90
2017-08-11T01:06:55.622Z,99.90
2017-08-11T01:09:21.886Z,99.90
2017-08-11T01:11:48.098Z,99.90
2017-08-11T01:14:14.315Z,99.90
2017-08-11T01:16:40.536Z,99.90
2017-08-11T01:19:06.663Z,97.80
2017-08-11T01:21:32.808Z,99.90
2017-08-11T01:23:59.353Z,99.10
2017-08-11T01:26:25.925Z,99.90
2017-08-11T01:28:52.113Z,99.90
2017-08-11T01:31:19.222Z,99.90
2017-08-11T01:33:45.379Z,99.90
2017-08-11T01:36:11.785Z,99.90
2017-08-11T01:38:38.135Z,99.90
2017-08-11T01:41:04.303Z,99.90
2017-08-11T01:43:30.754Z,99.90
2017-08-11T01:45:57.073Z,99.90
2017-08-11T01:48:23.351Z,99.90
2017-08-11T01:50:49.642Z,99.90
2017-08-11T01:53:16.782Z,99.90
2017-08-11T01:55:43.127Z,99.90
2017-08-11T01:58:09.365Z,99.90
2017-08-11T02:00:35.621Z,99.90
2017-08-11T02:03:02.994Z,99.90
2017-08-11T02:05:29.269Z,99.90
2017-08-11T02:07:57.099Z,99.90
2017-08-11T02:10:23.433Z,99.90
2017-08-11T02:12:49.642Z,99.90
2017-08-11T02:15:16.384Z,99.90
2017-08-11T02:17:42.649Z,99.90
2017-08-11T02:20:08.811Z,99.90
2017-08-11T02:22:34.973Z,99.90
2017-08-11T02:25:01.174Z,99.90
2017-08-11T02:27:27.368Z,99.90
2017-08-11T02:29:53.569Z,99.90
2017-08-11T02:32:19.840Z,99.90
2017-08-11T02:34:47.060Z,99.90
2017-08-11T02:37:20.283Z,99.90
2017-08-11T02:39:46.456Z,99.90
2017-08-11T02:42:12.674Z,99.90
2017-08-11T02:44:38.918Z,99.90
2017-08-11T02:47:05.104Z,99.90
2017-08-11T02:49:31.235Z,99.90
2017-08-11T02:51:57.380Z,99.90
2017-08-11T02:54:24.361Z,99.90
2017-08-11T02:56:50.557Z,99.90
2017-08-11T02:59:17.564Z,99.90
2017-08-11T03:01:44.586Z,99.90
2017-08-11T03:04:10.848Z,99.90
2017-08-11T03:06:37.001Z,99.90
2017-08-11T03:09:03.229Z,99.90
2017-08-11T03:11:29.330Z,99.90
2017-08-11T03:13:55.501Z,99.90
2017-08-11T03:16:21.783Z,99.90
2017-08-11T03:18:47.926Z,99.90
2017-08-11T03:21:14.075Z,99.90
2017-08-11T03:23:41.012Z,99.90
2017-08-11T03:26:07.983Z,99.90
2017-08-11T03:28:34.185Z,99.90
2017-08-11T03:31:00.420Z,99.90
2017-08-11T03:33:27.353Z,99.90
2017-08-11T03:35:53.489Z,99.90
2017-08-11T03:38:20.438Z,99.90
2017-08-11T03:40:46.544Z,99.90
2017-08-11T03:43:13.514Z,99.90
2017-08-11T03:45:46.538Z,99.90
2017-08-11T03:48:12.731Z,99.90
2017-08-11T03:50:38.965Z,99.90
2017-08-11T03:53:05.152Z,99.90
2017-08-11T03:55:31.683Z,99.90
2017-08-11T03:57:57.825Z,99.90
2017-08-11T04:00:24.045Z,99.90
2017-08-11T04:02:50.949Z,99.90
2017-08-11T04:05:17.135Z,99.90
2017-08-11T04:07:43.404Z,99.90
2017-08-11T04:10:09.585Z,99.90
2017-08-11T04:12:36.529Z,99.90
2017-08-11T04:15:02.739Z,99.90
2017-08-11T04:17:28.974Z,99.90
2017-08-11T04:19:55.183Z,99.90
2017-08-11T04:22:21.317Z,99.90
2017-08-11T04:24:47.483Z,99.90
2017-08-11T04:27:13.682Z,99.90
2017-08-11T04:29:39.807Z,99.90
2017-08-11T04:32:06.003Z,99.90
2017-08-11T04:34:33.009Z,99.90
2017-08-11T04:36:59.203Z,99.90
2017-08-11T04:39:32.488Z,99.90
2017-08-11T04:41:58.662Z,99.90
2017-08-11T04:44:25.121Z,99.90
2017-08-11T04:46:51.401Z,99.90
2017-08-11T04:49:17.643Z,99.90
2017-08-11T04:51:43.881Z,99.90
2017-08-11T04:54:10.143Z,99.90
2017-08-11T04:56:36.298Z,99.90
2017-08-11T04:59:02.433Z,99.90
2017-08-11T05:01:29.641Z,99.90
2017-08-11T05:03:55.946Z,99.90
2017-08-11T05:06:22.162Z,99.90
2017-08-11T05:08:55.417Z,99.90
2017-08-11T05:11:21.795Z,99.90
2017-08-11T05:13:49.039Z,99.90
2017-08-11T05:16:15.283Z,99.90
2017-08-11T05:18:41.564Z,99.90
2017-08-11T05:21:07.717Z,99.90
2017-08-11T05:23:33.964Z,99.90
2017-08-11T05:26:00.058Z,99.90
2017-08-11T05:28:26.197Z,99.90
2017-08-11T05:30:52.470Z,99.90
2017-08-11T05:33:19.389Z,99.90
2017-08-11T05:35:46.333Z,99.90
2017-08-11T05:38:13.280Z,99.90
2017-08-11T05:40:39.481Z,99.90
2017-08-11T05:43:06.339Z,99.90
2017-08-11T05:45:32.597Z,99.90
2017-08-11T05:47:58.774Z,99.90
2017-08-11T05:50:24.915Z,99.90
2017-08-11T05:52:51.884Z,99.90
2017-08-11T05:55:18.812Z,99.90
2017-08-11T05:57:45.762Z,99.90
2017-08-11T06:00:12.756Z,99.90
2017-08-11T06:02:38.965Z,99.90
2017-08-11T06:05:05.134Z,99.90
2017-08-11T06:07:31.275Z,99.90
2017-08-11T06:09:57.378Z,98.80
2017-08-11T06:12:23.508Z,99.30
2017-08-11T06:14:49.680Z,98.00
2017-08-11T06:17:16.669Z,97.80
2017-08-11T06:19:43.536Z,99.20
2017-08-11T06:22:10.434Z,98.70
2017-08-11T06:24:37.328Z,99.60
2017-08-11T06:27:03.457Z,99.40
2017-08-11T06:29:29.722Z,98.80
2017-08-11T06:31:56.025Z,99.30
2017-08-11T06:34:22.213Z,98.90
2017-08-11T06:36:48.405Z,99.50
2017-08-11T06:39:14.521Z,99.50
2017-08-11T06:41:40.626Z,98.00
2017-08-11T06:44:07.642Z,98.90
2017-08-11T06:46:33.764Z,98.80
2017-08-11T06:48:59.921Z,97.60
2017-08-11T06:51:26.187Z,98.40
2017-08-11T06:53:53.084Z,98.50
2017-08-11T06:56:19.194Z,98.30
2017-08-11T06:58:45.737Z,98.70
2017-08-11T07:01:11.902Z,99.90
2017-08-11T07:03:38.115Z,99.90
2017-08-11T07:06:04.335Z,99.90
2017-08-11T07:08:30.531Z,99.90
2017-08-11T07:10:56.934Z,99.90
2017-08-11T07:13:23.263Z,99.90
2017-08-11T07:15:50.177Z,97.50
2017-08-11T07:18:16.346Z,97.50
2017-08-11T07:20:43.321Z,97.50
2017-08-11T07:23:09.528Z,97.40
2017-08-11T07:25:35.781Z,98.00
2017-08-11T07:28:01.941Z,94.10
2017-08-11T07:30:28.145Z,94.10
2017-08-11T07:32:54.291Z,93.70
2017-08-11T07:35:20.606Z,91.90
2017-08-11T07:37:46.754Z,94.20
2017-08-11T07:40:12.992Z,91.40
2017-08-11T07:42:39.460Z,89.30
2017-08-11T07:45:05.764Z,89.80
2017-08-11T07:47:31.991Z,89.40
2017-08-11T07:49:58.245Z,90.20
2017-08-11T07:52:24.409Z,92.50
2017-08-11T07:54:51.274Z,90.40
2017-08-11T07:57:17.510Z,90.40
2017-08-11T07:59:43.728Z,89.50
2017-08-11T08:02:09.948Z,91.30
2017-08-11T08:04:36.126Z,92.00
2017-08-11T08:07:04.115Z,94.20
2017-08-11T08:09:30.241Z,94.20
2017-08-11T08:11:56.421Z,95.30
2017-08-11T08:14:22.520Z,93.90
2017-08-11T08:16:48.632Z,93.60
2017-08-11T08:19:14.821Z,92.70
2017-08-11T08:21:40.993Z,92.30
2017-08-11T08:24:07.125Z,91.90
2017-08-11T08:26:33.271Z,92.80
2017-08-11T08:28:59.472Z,94.30
2017-08-11T08:31:25.578Z,93.60
2017-08-11T08:33:51.817Z,92.10
2017-08-11T08:36:18.700Z,91.10
2017-08-11T08:38:45.633Z,89.40
2017-08-11T08:41:11.942Z,89.40
2017-08-11T08:43:38.818Z,89.40
2017-08-11T08:46:05.001Z,89.30
2017-08-11T08:48:31.156Z,87.20
2017-08-11T08:50:58.030Z,87.10
2017-08-11T08:53:24.269Z,87.10
2017-08-11T08:55:50.463Z,84.80
2017-08-11T08:58:16.687Z,82.10
2017-08-11T09:00:42.900Z,82.50
2017-08-11T09:03:09.054Z,84.50
2017-08-11T09:05:36.007Z,81.90
2017-08-11T09:08:02.211Z,81.80
2017-08-11T09:10:28.528Z,82.00
2017-08-11T09:12:55.380Z,81.40
2017-08-11T09:15:21.511Z,81.40
2017-08-11T09:17:47.781Z,81.90
2017-08-11T09:20:13.983Z,80.40
2017-08-11T09:22:40.202Z,81.20
2017-08-11T09:25:18.729Z,80.80
2017-08-11T09:27:58.092Z,81.40
2017-08-11T09:30:38.012Z,82.20
2017-08-11T09:33:17.113Z,82.20
2017-08-11T09:35:55.665Z,82.80
2017-08-11T09:38:21.839Z,83.50
2017-08-11T09:40:48.005Z,83.50
2017-08-11T09:43:14.268Z,82.50
2017-08-11T09:45:41.175Z,84.00
2017-08-11T09:48:09.293Z,83.30
2017-08-11T09:50:35.465Z,83.30
2017-08-11T09:53:01.773Z,82.50
2017-08-11T09:55:28.031Z,83.20
2017-08-11T09:57:55.064Z,82.30
2017-08-11T10:00:21.933Z,82.00
2017-08-11T10:02:48.918Z,81.80
2017-08-11T10:05:15.112Z,81.90
2017-08-11T10:07:41.722Z,81.10
2017-08-11T10:10:08.703Z,81.40
2017-08-11T10:12:34.979Z,81.50
2017-08-11T10:15:01.207Z,80.30
2017-08-11T10:17:28.116Z,80.70
2017-08-11T10:19:54.324Z,80.70
2017-08-11T10:22:21.257Z,80.40
2017-08-11T10:24:48.215Z,79.60
2017-08-11T10:27:14.440Z,78.90
2017-08-11T10:29:40.590Z,78.40
2017-08-11T10:32:06.840Z,76.80
2017-08-11T10:34:33.048Z,76.50
2017-08-11T10:36:59.945Z,76.90
2017-08-11T10:39:26.093Z,76.90
2017-08-11T10:41:53.074Z,77.90
2017-08-11T10:44:19.247Z,77.90
2017-08-11T10:46:45.349Z,78.80
2017-08-11T10:49:13.241Z,79.00
2017-08-11T10:51:40.180Z,79.40
2017-08-11T10:54:06.318Z,79.30
2017-08-11T10:56:32.667Z,76.80
2017-08-11T10:58:58.977Z,75.30
2017-08-11T11:01:25.195Z,74.80
2017-08-11T11:03:51.392Z,74.20
2017-08-11T11:06:17.579Z,73.90
2017-08-11T11:08:43.875Z,74.80
2017-08-11T11:11:14.292Z,74.70
2017-08-11T11:13:40.449Z,73.50
2017-08-11T11:16:06.747Z,73.60
2017-08-11T11:18:33.133Z,71.80
2017-08-11T11:21:00.361Z,65.30
2017-08-11T11:23:27.685Z,64.80
2017-08-11T11:25:55.413Z,62.40
2017-08-11T11:28:22.372Z,63.90
2017-08-11T11:30:49.399Z,62.30
2017-08-11T11:33:15.681Z,62.20
2017-08-11T11:35:42.554Z,62.90
2017-08-11T11:38:08.756Z,62.80
2017-08-11T11:40:37.545Z,58.70
2017-08-11T11:43:03.664Z,54.40
2017-08-11T11:45:29.872Z,54.50
2017-08-11T11:47:56.788Z,54.80
2017-08-11T11:50:22.924Z,54.80
2017-08-11T11:52:49.084Z,55.90
2017-08-11T11:55:16.173Z,55.80
2017-08-11T11:57:42.420Z,55.70
2017-08-11T12:00:08.989Z,55.60
2017-08-11T12:02:35.189Z,57.90
2017-08-11T12:05:01.634Z,59.10
2017-08-11T12:07:28.132Z,60.30
2017-08-11T12:09:54.409Z,60.40
2017-08-11T12:12:20.561Z,60.50
2017-08-11T12:14:46.696Z,62.20
2017-08-11T12:17:12.944Z,62.20
2017-08-11T12:19:39.179Z,62.50
2017-08-11T12:22:05.460Z,61.80
2017-08-11T12:24:31.637Z,63.30
2017-08-11T12:26:57.740Z,62.80
2017-08-11T12:29:23.835Z,62.90
2017-08-11T12:31:49.997Z,63.70
2017-08-11T12:34:16.214Z,63.70
2017-08-11T12:36:42.339Z,64.30
2017-08-11T12:39:08.770Z,64.40
2017-08-11T12:41:34.989Z,65.50
2017-08-11T12:44:01.107Z,63.60
2017-08-11T12:46:27.275Z,62.80
2017-08-11T12:48:54.221Z,64.10
2017-08-11T12:51:20.469Z,64.10
2017-08-11T12:53:47.419Z,64.80
2017-08-11T12:56:13.581Z,64.80
2017-08-11T12:58:39.722Z,64.60
2017-08-11T13:01:05.921Z,64.20
2017-08-11T13:03:32.050Z,62.60
2017-08-11T13:05:58.229Z,62.60
2017-08-11T13:08:24.479Z,62.60
2017-08-11T13:10:50.669Z,63.70
2017-08-11T13:13:16.779Z,63.00
2017-08-11T13:15:42.947Z,63.70
2017-08-11T13:18:09.144Z,64.20
2017-08-11T13:20:35.292Z,64.30
2017-08-11T13:23:01.574Z,65.00
2017-08-11T13:25:28.498Z,65.00
2017-08-11T13:27:54.781Z,61.60
2017-08-11T13:30:21.067Z,60.00
2017-08-11T13:32:47.282Z,57.10
2017-08-11T13:35:13.458Z,54.70
2017-08-11T13:37:40.428Z,54.80
2017-08-11T13:40:06.620Z,54.80
2017-08-11T13:42:32.753Z,54.60
2017-08-11T13:44:58.908Z,53.90
2017-08-11T13:47:25.160Z,54.60
2017-08-11T13:49:51.366Z,52.80
2017-08-11T13:52:17.683Z,53.20
2017-08-11T13:54:43.972Z,53.30
2017-08-11T13:57:10.067Z,55.60
2017-08-11T13:59:36.314Z,55.60
2017-08-11T14:02:02.492Z,55.30
2017-08-11T14:04:28.709Z,54.20
2017-08-11T14:06:54.870Z,53.80
2017-08-11T14:09:21.097Z,55.00
2017-08-11T14:11:47.285Z,54.60
2017-08-11T14:14:13.445Z,54.60
2017-08-11T14:16:39.592Z,53.80
2017-08-11T14:19:05.761Z,51.60
2017-08-11T14:21:31.970Z,50.50
2017-08-11T14:24:04.201Z,52.10
2017-08-11T14:26:30.401Z,55.30
2017-08-11T14:28:56.551Z,55.50
2017-08-11T14:31:22.754Z,56.70
2017-08-11T14:33:49.041Z,58.50
2017-08-11T14:36:15.239Z,59.80
2017-08-11T14:38:41.428Z,59.90
2017-08-11T14:41:07.698Z,60.00
2017-08-11T14:43:34.736Z,61.00
2017-08-11T14:46:00.970Z,60.80
2017-08-11T14:48:27.190Z,62.50
2017-08-11T14:50:53.413Z,63.40
2017-08-11T14:53:20.551Z,64.30
2017-08-11T14:55:46.677Z,64.20
2017-08-11T14:58:13.084Z,65.70
2017-08-11T15:00:40.541Z,66.70
2017-08-11T15:03:06.699Z,66.70
2017-08-11T15:05:32.985Z,67.20
2017-08-11T15:07:59.158Z,68.10
2017-08-11T15:10:25.384Z,67.50
2017-08-11T15:12:51.653Z,67.80
2017-08-11T15:15:17.997Z,66.60
2017-08-11T15:17:45.266Z,66.80
2017-08-11T15:20:11.497Z,67.10
2017-08-11T15:22:37.641Z,67.90
2017-08-11T15:25:03.876Z,68.70
2017-08-11T15:27:31.513Z,72.10
2017-08-11T15:29:57.671Z,72.10
2017-08-11T15:32:23.989Z,72.00
2017-08-11T15:34:50.182Z,72.70
2017-08-11T15:37:16.628Z,74.80
2017-08-11T15:39:42.887Z,76.40
2017-08-11T15:42:09.286Z,79.80
2017-08-11T15:44:35.555Z,85.80
2017-08-11T15:47:01.822Z,91.40
2017-08-11T15:49:28.062Z,95.10
2017-08-11T15:51:54.191Z,96.60
2017-08-11T15:54:21.149Z,90.50
2017-08-11T15:56:47.340Z,90.50
2017-08-11T15:59:14.497Z,93.20
2017-08-11T16:01:40.684Z,92.50
2017-08-11T16:04:07.721Z,96.60
2017-08-11T16:06:33.867Z,96.50
2017-08-11T16:09:00.106Z,97.40
2017-08-11T16:11:26.365Z,98.20
2017-08-11T16:13:52.512Z,98.70
2017-08-11T16:16:19.415Z,96.00
2017-08-11T16:18:45.626Z,96.20
2017-08-11T16:21:11.878Z,99.50
2017-08-11T16:23:38.052Z,99.40
2017-08-11T16:26:04.328Z,98.00
2017-08-11T16:28:30.433Z,98.10
2017-08-11T16:30:57.742Z,98.20
2017-08-11T16:33:24.697Z,96.20
2017-08-11T16:35:51.975Z,97.20
2017-08-11T16:38:18.177Z,97.10
2017-08-11T16:40:45.119Z,96.80
2017-08-11T16:43:11.317Z,96.90
2017-08-11T16:45:38.223Z,95.60
2017-08-11T16:48:05.258Z,94.90
2017-08-11T16:50:32.205Z,95.90
2017-08-11T16:52:58.308Z,95.70
2017-08-11T16:55:24.613Z,95.60
2017-08-11T16:57:52.288Z,95.60
2017-08-11T17:00:18.469Z,95.50
2017-08-11T17:02:44.778Z,95.80
2017-08-11T17:05:11.015Z,93.90
2017-08-11T17:07:37.221Z,96.50
2017-08-11T17:10:03.474Z,97.30
2017-08-11T17:12:29.805Z,95.60
2017-08-11T17:14:56.013Z,97.10
2017-08-11T17:17:22.935Z,95.60
2017-08-11T17:19:49.302Z,95.50
2017-08-11T17:22:16.284Z,94.70
2017-08-11T17:24:42.581Z,96.20
2017-08-11T17:27:08.817Z,96.30
2017-08-11T17:29:34.986Z,96.60
2017-08-11T17:32:01.863Z,96.10
2017-08-11T17:34:28.113Z,96.20
2017-08-11T17:36:54.361Z,96.90
2017-08-11T17:39:20.818Z,95.10
2017-08-11T17:41:47.221Z,95.90
2017-08-11T17:44:14.408Z,96.50
2017-08-11T17:46:40.897Z,96.20
2017-08-11T17:49:07.171Z,96.80
2017-08-11T17:51:33.519Z,97.10
2017-08-11T17:53:59.812Z,96.60
2017-08-11T17:56:25.982Z,97.10
2017-08-11T17:58:52.230Z,97.40
2017-08-11T18:01:18.371Z,97.70
2017-08-11T18:03:44.661Z,96.30
2017-08-11T18:06:10.787Z,96.50
2017-08-11T18:08:37.202Z,97.10
2017-08-11T18:11:04.215Z,98.10
2017-08-11T18:13:30.526Z,98.00
2017-08-11T18:15:56.872Z,98.30
2017-08-11T18:18:23.200Z,98.10
2017-08-11T18:20:49.468Z,97.60
2017-08-11T18:23:15.714Z,97.70
2017-08-11T18:25:41.970Z,97.80
2017-08-11T18:28:08.089Z,97.30
2017-08-11T18:30:35.607Z,97.10
2017-08-11T18:33:01.804Z,97.40
2017-08-11T18:35:28.752Z,98.20
2017-08-11T18:37:55.861Z,97.30
2017-08-11T18:40:22.713Z,94.30
2017-08-11T18:42:48.947Z,94.40
2017-08-11T18:45:15.083Z,92.10
2017-08-11T18:47:41.882Z,90.20
2017-08-11T18:50:09.165Z,89.80
2017-08-11T18:52:36.147Z,91.40
2017-08-11T18:55:02.379Z,91.10
2017-08-11T18:57:29.131Z,90.80
2017-08-11T18:59:55.460Z,91.70
2017-08-11T19:02:23.418Z,93.50
2017-08-11T19:04:49.556Z,93.50
2017-08-11T19:07:16.068Z,92.40
2017-08-11T19:09:42.265Z,92.50
2017-08-11T19:12:08.385Z,93.40
2017-08-11T19:14:35.294Z,93.00
2017-08-11T19:17:03.485Z,92.80
2017-08-11T19:19:31.256Z,92.80
2017-08-11T19:21:57.909Z,91.80
2017-08-11T19:24:25.369Z,90.40
2017-08-11T19:26:52.307Z,89.50
2017-08-11T19:29:18.466Z,89.30
2017-08-11T19:31:44.755Z,88.80
2017-08-11T19:34:11.253Z,88.10
2017-08-11T19:36:39.998Z,87.70
2017-08-11T19:39:06.251Z,88.40
2017-08-11T19:41:32.642Z,89.30
2017-08-11T19:43:58.941Z,87.30
2017-08-11T19:46:25.064Z,87.10
2017-08-11T19:48:52.095Z,86.20
2017-08-11T19:51:18.873Z,86.20
2017-08-11T19:53:45.117Z,86.40
2017-08-11T19:56:11.700Z,86.10
2017-08-11T19:58:38.147Z,87.30
2017-08-11T20:01:04.508Z,86.00
2017-08-11T20:03:30.695Z,86.10
2017-08-11T20:05:57.071Z,86.80
2017-08-11T20:08:23.351Z,87.50
2017-08-11T20:10:49.607Z,86.90
2017-08-11T20:13:15.950Z,87.90
2017-08-11T20:15:42.284Z,88.90
2017-08-11T20:18:08.771Z,89.20
2017-08-11T20:20:35.154Z,89.30
2017-08-11T20:23:01.476Z,89.10
2017-08-11T20:25:27.739Z,89.90
2017-08-11T20:27:54.177Z,89.80
2017-08-11T20:30:20.586Z,88.90
2017-08-11T20:32:47.208Z,90.50
2017-08-11T20:35:14.067Z,89.50
2017-08-11T20:37:40.222Z,89.10
2017-08-11T20:40:06.995Z,88.60
2017-08-11T20:42:33.941Z,89.00
2017-08-11T20:45:00.218Z,89.60
2017-08-11T20:47:26.978Z,90.60
2017-08-11T20:49:53.635Z,92.00
2017-08-11T20:52:20.178Z,92.10
2017-08-11T20:54:46.388Z,92.10
2017-08-11T20:57:12.683Z,92.00
2017-08-11T20:59:38.901Z,92.10
2017-08-11T21:02:05.099Z,93.00
2017-08-11T21:04:31.297Z,94.10
2017-08-11T21:06:57.657Z,95.20
2017-08-11T21:09:23.835Z,94.80
2017-08-11T21:11:50.095Z,95.70
2017-08-11T21:14:23.330Z,95.50
2017-08-11T21:16:49.708Z,95.50
2017-08-11T21:19:15.917Z,96.00
2017-08-11T21:21:43.031Z,97.50
2017-08-11T21:24:09.336Z,96.90
2017-08-11T21:26:36.517Z,96.90
2017-08-11T21:29:03.194Z,96.50
2017-08-11T21:31:29.583Z,96.70
2017-08-11T21:33:59.368Z,98.00
2017-08-11T21:36:26.075Z,98.80
2017-08-11T21:38:52.716Z,99.10
2017-08-11T21:41:19.949Z,99.40
2017-08-11T21:43:46.394Z,99.80
2017-08-11T21:46:12.617Z,99.90
2017-08-11T21:48:39.056Z,99.90
2017-08-11T21:51:05.680Z,99.90
2017-08-11T21:53:31.881Z,99.90
2017-08-11T21:55:58.054Z,99.90
2017-08-11T21:58:24.261Z,99.90
2017-08-11T22:00:50.904Z,99.90
2017-08-11T22:03:17.242Z,99.90
2017-08-11T22:05:43.632Z,99.90
2017-08-11T22:08:10.318Z,99.90
2017-08-11T22:10:36.851Z,99.90
2017-08-11T22:13:03.269Z,99.90
2017-08-11T22:15:35.197Z,99.90
2017-08-11T22:18:01.667Z,99.90
2017-08-11T22:20:29.411Z,99.90
2017-08-11T22:22:56.685Z,99.90
2017-08-11T22:25:24.240Z,99.90
2017-08-11T22:27:50.810Z,99.90
2017-08-11T22:30:17.205Z,99.90
2017-08-11T22:32:43.615Z,99.90
2017-08-11T22:35:09.914Z,99.90
2017-08-11T22:37:37.758Z,99.80
2017-08-11T22:40:05.145Z,99.20
2017-08-11T22:42:31.887Z,98.10
2017-08-11T22:44:58.239Z,96.80
2017-08-11T22:47:24.859Z,97.20
2017-08-11T22:49:52.285Z,97.20
2017-08-11T22:52:18.894Z,93.10
2017-08-11T22:54:45.265Z,94.20
2017-08-11T22:57:11.559Z,95.70
2017-08-11T22:59:38.020Z,94.00
2017-08-11T23:02:04.565Z,94.50
2017-08-11T23:04:31.583Z,93.70
2017-08-11T23:06:58.826Z,96.70
2017-08-11T23:09:25.816Z,97.40
2017-08-11T23:11:52.172Z,97.50
2017-08-11T23:14:18.538Z,98.30
2017-08-11T23:16:44.932Z,98.70
2017-08-11T23:19:12.308Z,99.20
2017-08-11T23:21:38.714Z,97.90
2017-08-11T23:24:07.682Z,97.10
2017-08-11T23:26:33.986Z,97.30
2017-08-11T23:29:00.553Z,97.30
2017-08-11T23:31:27.796Z,93.20
2017-08-11T23:33:55.653Z,93.30
2017-08-11T23:36:22.283Z,95.70
2017-08-11T23:38:48.514Z,94.50
2017-08-11T23:41:14.855Z,93.80
2017-08-11T23:43:41.113Z,93.10
2017-08-11T23:46:07.289Z,89.40
2017-08-11T23:48:33.740Z,85.00
2017-08-11T23:51:01.919Z,86.00
2017-08-11T23:53:28.824Z,85.70
2017-08-11T23:55:55.227Z,83.60
2017-08-11T23:58:21.605Z,85.30
